sensor_id;sensor_type;location;lat;lon;timestamp;pressure;altitude;pressure_sealevel;temperature;humidity
75867;BME280;64513;56.258;43.980;2023-02-28T00:01:35;99646.58;;;2.02;50.29
75867;BME280;64513;56.258;43.980;2023-02-28T00:03:59;99634.77;;;1.99;50.29
75867;BME280;64513;56.258;43.980;2023-02-28T00:06:24;99643.03;;;1.96;50.16
75867;BME280;64513;56.258;43.980;2023-02-28T00:08:48;99638.61;;;1.97;50.21
75867;BME280;64513;56.258;43.980;2023-02-28T00:11:14;99646.66;;;1.95;49.91
75867;BME280;64513;56.258;43.980;2023-02-28T00:13:41;99651.52;;;1.92;49.93
75867;BME280;64513;56.258;43.980;2023-02-28T00:16:27;99643.91;;;1.90;49.99
75867;BME280;64513;56.258;43.980;2023-02-28T00:18:51;99632.36;;;1.86;50.01
75867;BME280;64513;56.258;43.980;2023-02-28T00:21:16;99644.59;;;1.86;50.00
75867;BME280;64513;56.258;43.980;2023-02-28T00:23:41;99646.05;;;1.82;49.98
75867;BME280;64513;56.258;43.980;2023-02-28T00:26:05;99639.24;;;1.81;49.98
75867;BME280;64513;56.258;43.980;2023-02-28T00:28:29;99635.27;;;1.78;49.90
75867;BME280;64513;56.258;43.980;2023-02-28T00:30:54;99646.92;;;1.75;49.81
75867;BME280;64513;56.258;43.980;2023-02-28T00:33:19;99633.31;;;1.73;49.95
75867;BME280;64513;56.258;43.980;2023-02-28T00:35:43;99624.15;;;1.71;49.99
75867;BME280;64513;56.258;43.980;2023-02-28T00:38:27;99627.77;;;1.70;49.92
75867;BME280;64513;56.258;43.980;2023-02-28T00:40:51;99615.39;;;1.65;49.92
75867;BME280;64513;56.258;43.980;2023-02-28T00:43:15;99615.61;;;1.64;49.98
75867;BME280;64513;56.258;43.980;2023-02-28T00:45:39;99604.61;;;1.62;50.03
75867;BME280;64513;56.258;43.980;2023-02-28T00:48:04;99612.64;;;1.60;50.07
75867;BME280;64513;56.258;43.980;2023-02-28T00:50:28;99605.84;;;1.59;50.04
75867;BME280;64513;56.258;43.980;2023-02-28T00:52:52;99610.72;;;1.56;50.07
75867;BME280;64513;56.258;43.980;2023-02-28T00:55:16;99605.73;;;1.54;50.17
75867;BME280;64513;56.258;43.980;2023-02-28T00:57:40;99598.92;;;1.53;50.25
75867;BME280;64513;56.258;43.980;2023-02-28T01:00:06;99590.53;;;1.51;50.26
75867;BME280;64513;56.258;43.980;2023-02-28T01:02:30;99595.16;;;1.49;50.27
75867;BME280;64513;56.258;43.980;2023-02-28T01:04:54;99576.13;;;1.49;50.30
75867;BME280;64513;56.258;43.980;2023-02-28T01:07:18;99582.56;;;1.46;50.31
75867;BME280;64513;56.258;43.980;2023-02-28T01:09:43;99579.61;;;1.43;50.34
75867;BME280;64513;56.258;43.980;2023-02-28T01:12:08;99585.06;;;1.41;50.38
75867;BME280;64513;56.258;43.980;2023-02-28T01:14:32;99570.45;;;1.40;50.37
75867;BME280;64513;56.258;43.980;2023-02-28T01:16:56;99567.26;;;1.38;50.40
75867;BME280;64513;56.258;43.980;2023-02-28T01:19:20;99565.89;;;1.35;50.44
75867;BME280;64513;56.258;43.980;2023-02-28T01:21:44;99553.08;;;1.34;50.44
75867;BME280;64513;56.258;43.980;2023-02-28T01:24:09;99540.48;;;1.31;50.39
75867;BME280;64513;56.258;43.980;2023-02-28T01:26:33;99542.52;;;1.29;50.44
75867;BME280;64513;56.258;43.980;2023-02-28T01:28:57;99539.33;;;1.27;50.44
75867;BME280;64513;56.258;43.980;2023-02-28T01:31:22;99538.79;;;1.25;50.47
75867;BME280;64513;56.258;43.980;2023-02-28T01:33:47;99539.01;;;1.23;50.52
75867;BME280;64513;56.258;43.980;2023-02-28T01:38:57;99526.63;;;1.19;50.50
75867;BME280;64513;56.258;43.980;2023-02-28T01:41:24;99532.28;;;1.16;50.54
75867;BME280;64513;56.258;43.980;2023-02-28T01:46:35;99536.58;;;1.10;50.62
75867;BME280;64513;56.258;43.980;2023-02-28T01:49:20;99540.41;;;1.08;50.59
75867;BME280;64513;56.258;43.980;2023-02-28T01:52:16;99540.84;;;1.04;50.69
75867;BME280;64513;56.258;43.980;2023-02-28T01:54:33;99544.45;;;1.03;50.64
75867;BME280;64513;56.258;43.980;2023-02-28T01:59:47;99535.92;;;0.96;50.66
75867;BME280;64513;56.258;43.980;2023-02-28T02:02:11;99529.13;;;0.95;50.68
75867;BME280;64513;56.258;43.980;2023-02-28T02:04:38;99530.38;;;0.93;50.71
75867;BME280;64513;56.258;43.980;2023-02-28T02:07:03;99525.39;;;0.91;50.74
75867;BME280;64513;56.258;43.980;2023-02-28T02:09:28;99524.02;;;0.89;50.78
75867;BME280;64513;56.258;43.980;2023-02-28T02:11:52;99503.41;;;0.87;50.79
75867;BME280;64513;56.258;43.980;2023-02-28T02:17:44;99491.41;;;0.86;50.75
75867;BME280;64513;56.258;43.980;2023-02-28T02:53:55;99441.13;;;0.56;50.99
75867;BME280;64513;56.258;43.980;2023-02-28T02:56:23;99433.76;;;0.53;51.02
75867;BME280;64513;56.258;43.980;2023-02-28T02:58:49;99424.94;;;0.54;51.05
75867;BME280;64513;56.258;43.980;2023-02-28T03:01:18;99417.57;;;0.51;51.08
75867;BME280;64513;56.258;43.980;2023-02-28T03:03:43;99418.37;;;0.51;51.11
75867;BME280;64513;56.258;43.980;2023-02-28T03:06:09;99411.79;;;0.49;51.09
75867;BME280;64513;56.258;43.980;2023-02-28T03:08:53;99392.56;;;0.50;51.16
75867;BME280;64513;56.258;43.980;2023-02-28T03:11:17;99396.18;;;0.49;51.21
75867;BME280;64513;56.258;43.980;2023-02-28T03:20:14;99360.23;;;0.46;51.15
75867;BME280;64513;56.258;43.980;2023-02-28T03:32:24;99311.09;;;0.38;51.24
75867;BME280;64513;56.258;43.980;2023-02-28T03:34:38;99306.11;;;0.36;51.39
75867;BME280;64513;56.258;43.980;2023-02-28T03:37:05;99289.14;;;0.33;51.31
75867;BME280;64513;56.258;43.980;2023-02-28T03:42:36;99287.55;;;0.32;51.40
75867;BME280;64513;56.258;43.980;2023-02-28T03:45:04;99288.59;;;0.31;51.33
75867;BME280;64513;56.258;43.980;2023-02-28T03:47:32;99291.20;;;0.31;51.41
75867;BME280;64513;56.258;43.980;2023-02-28T03:50:17;99283.39;;;0.31;51.40
75867;BME280;64513;56.258;43.980;2023-02-28T04:01:55;99260.42;;;0.28;51.11
75867;BME280;64513;56.258;43.980;2023-02-28T04:04:21;99252.84;;;0.27;51.10
75867;BME280;64513;56.258;43.980;2023-02-28T04:06:46;99242.66;;;0.25;51.14
75867;BME280;64513;56.258;43.980;2023-02-28T04:09:13;99247.64;;;0.27;51.12
75867;BME280;64513;56.258;43.980;2023-02-28T04:11:58;99241.65;;;0.26;51.06
75867;BME280;64513;56.258;43.980;2023-02-28T04:14:22;99229.22;;;0.28;51.07
75867;BME280;64513;56.258;43.980;2023-02-28T04:16:46;99216.00;;;0.30;51.00
75867;BME280;64513;56.258;43.980;2023-02-28T04:19:12;99215.78;;;0.31;50.97
75867;BME280;64513;56.258;43.980;2023-02-28T04:21:39;99200.72;;;0.33;51.13
75867;BME280;64513;56.258;43.980;2023-02-28T04:24:04;99199.48;;;0.36;50.98
75867;BME280;64513;56.258;43.980;2023-02-28T04:26:31;99196.45;;;0.39;50.89
75867;BME280;64513;56.258;43.980;2023-02-28T04:28:56;99197.81;;;0.42;50.85
75867;BME280;64513;56.258;43.980;2023-02-28T04:31:20;99191.38;;;0.44;50.74
75867;BME280;64513;56.258;43.980;2023-02-28T04:33:44;99167.27;;;0.49;50.74
75867;BME280;64513;56.258;43.980;2023-02-28T04:36:09;99166.38;;;0.55;50.66
75867;BME280;64513;56.258;43.980;2023-02-28T04:38:54;99146.92;;;0.69;50.62
75867;BME280;64513;56.258;43.980;2023-02-28T04:41:20;99148.16;;;0.90;50.27
75867;BME280;64513;56.258;43.980;2023-02-28T04:43:44;99149.36;;;1.11;49.90
75867;BME280;64513;56.258;43.980;2023-02-28T04:46:09;99147.51;;;1.34;49.60
75867;BME280;64513;56.258;43.980;2023-02-28T04:48:35;99151.30;;;1.55;49.32
75867;BME280;64513;56.258;43.980;2023-02-28T04:53:45;99128.46;;;1.91;49.16
75867;BME280;64513;56.258;43.980;2023-02-28T04:56:11;99124.84;;;2.08;48.58
75867;BME280;64513;56.258;43.980;2023-02-28T04:58:36;99124.77;;;2.37;48.16
75867;BME280;64513;56.258;43.980;2023-02-28T05:04:05;99119.55;;;2.92;47.59
75867;BME280;64513;56.258;43.980;2023-02-28T05:06:31;99116.38;;;3.34;47.31
75867;BME280;64513;56.258;43.980;2023-02-28T05:08:55;99124.30;;;3.66;46.68
75867;BME280;64513;56.258;43.980;2023-02-28T05:14:09;99134.20;;;4.17;46.10
75867;BME280;64513;56.258;43.980;2023-02-28T05:16:32;99125.28;;;4.50;45.60
75867;BME280;64513;56.258;43.980;2023-02-28T05:18:56;99124.39;;;4.72;45.32
75867;BME280;64513;56.258;43.980;2023-02-28T05:21:47;99121.86;;;4.92;45.22
75867;BME280;64513;56.258;43.980;2023-02-28T05:24:26;99120.59;;;5.05;45.03
75867;BME280;64513;56.258;43.980;2023-02-28T05:26:52;99119.55;;;5.01;45.03
75867;BME280;64513;56.258;43.980;2023-02-28T05:29:16;99111.95;;;5.04;44.91
75867;BME280;64513;56.258;43.980;2023-02-28T05:31:40;99115.14;;;5.11;44.86
75867;BME280;64513;56.258;43.980;2023-02-28T05:34:05;99107.30;;;5.16;44.62
75867;BME280;64513;56.258;43.980;2023-02-28T05:36:29;99091.33;;;5.23;44.64
75867;BME280;64513;56.258;43.980;2023-02-28T05:38:53;99085.85;;;5.29;44.90
75867;BME280;64513;56.258;43.980;2023-02-28T05:41:19;99069.09;;;5.41;44.36
75867;BME280;64513;56.258;43.980;2023-02-28T05:43:43;99069.39;;;5.59;44.17
75867;BME280;64513;56.258;43.980;2023-02-28T05:46:10;99066.00;;;5.84;43.87
75867;BME280;64513;56.258;43.980;2023-02-28T05:48:35;99058.42;;;6.03;43.82
75867;BME280;64513;56.258;43.980;2023-02-28T05:51:00;99037.62;;;6.47;43.67
75867;BME280;64513;56.258;43.980;2023-02-28T05:53:24;99017.33;;;6.73;43.61
75867;BME280;64513;56.258;43.980;2023-02-28T05:55:48;99012.08;;;6.68;43.01
75867;BME280;64513;56.258;43.980;2023-02-28T05:58:14;99014.95;;;6.77;43.41
75867;BME280;64513;56.258;43.980;2023-02-28T06:00:38;99007.03;;;6.82;43.10
75867;BME280;64513;56.258;43.980;2023-02-28T06:03:02;99008.05;;;6.91;43.26
75867;BME280;64513;56.258;43.980;2023-02-28T06:05:26;98991.45;;;6.95;43.30
75867;BME280;64513;56.258;43.980;2023-02-28T06:07:51;98987.50;;;6.98;43.10
75867;BME280;64513;56.258;43.980;2023-02-28T06:10:15;98981.73;;;6.96;42.44
75867;BME280;64513;56.258;43.980;2023-02-28T06:12:39;98946.75;;;7.00;42.21
75867;BME280;64513;56.258;43.980;2023-02-28T06:15:04;98949.65;;;6.99;43.00
75867;BME280;64513;56.258;43.980;2023-02-28T06:17:28;98940.70;;;7.00;42.35
75867;BME280;64513;56.258;43.980;2023-02-28T06:19:53;98953.33;;;6.98;42.44
75867;BME280;64513;56.258;43.980;2023-02-28T06:22:17;98919.97;;;6.93;41.98
75867;BME280;64513;56.258;43.980;2023-02-28T06:24:41;98923.44;;;6.89;42.28
75867;BME280;64513;56.258;43.980;2023-02-28T06:27:05;98932.39;;;6.83;42.14
75867;BME280;64513;56.258;43.980;2023-02-28T06:29:29;98936.88;;;6.77;41.82
75867;BME280;64513;56.258;43.980;2023-02-28T06:31:53;98911.44;;;6.73;41.77
75867;BME280;64513;56.258;43.980;2023-02-28T06:34:17;98898.06;;;6.69;42.14
75867;BME280;64513;56.258;43.980;2023-02-28T06:36:42;98887.84;;;6.62;42.08
75867;BME280;64513;56.258;43.980;2023-02-28T06:39:07;98870.80;;;6.60;42.12
75867;BME280;64513;56.258;43.980;2023-02-28T06:41:31;98864.25;;;6.57;42.39
75867;BME280;64513;56.258;43.980;2023-02-28T06:43:57;98853.48;;;6.54;42.46
75867;BME280;64513;56.258;43.980;2023-02-28T06:46:22;98854.80;;;6.56;42.34
75867;BME280;64513;56.258;43.980;2023-02-28T06:48:46;98838.56;;;6.88;41.65
75867;BME280;64513;56.258;43.980;2023-02-28T06:53:57;98834.47;;;7.64;40.54
75867;BME280;64513;56.258;43.980;2023-02-28T06:56:21;98806.77;;;8.14;39.99
75867;BME280;64513;56.258;43.980;2023-02-28T06:59:05;98805.67;;;8.58;39.62
75867;BME280;64513;56.258;43.980;2023-02-28T07:01:30;98801.54;;;9.03;39.23
75867;BME280;64513;56.258;43.980;2023-02-28T07:03:54;98792.82;;;9.48;38.94
75867;BME280;64513;56.258;43.980;2023-02-28T07:06:21;98783.83;;;9.77;38.40
75867;BME280;64513;56.258;43.980;2023-02-28T07:08:46;98779.32;;;10.05;38.01
75867;BME280;64513;56.258;43.980;2023-02-28T07:11:10;98777.33;;;10.24;38.13
75867;BME280;64513;56.258;43.980;2023-02-28T07:13:34;98769.84;;;10.40;37.68
75867;BME280;64513;56.258;43.980;2023-02-28T07:16:01;98767.83;;;10.59;37.45
75867;BME280;64513;56.258;43.980;2023-02-28T07:18:26;98778.30;;;10.64;37.31
75867;BME280;64513;56.258;43.980;2023-02-28T07:20:50;98757.38;;;10.76;37.08
75867;BME280;64513;56.258;43.980;2023-02-28T07:23:14;98744.16;;;10.76;37.29
75867;BME280;64513;56.258;43.980;2023-02-28T07:25:38;98714.89;;;11.04;37.06
75867;BME280;64513;56.258;43.980;2023-02-28T07:28:02;98728.43;;;11.33;37.01
75867;BME280;64513;56.258;43.980;2023-02-28T07:30:27;98730.45;;;11.76;35.89
75867;BME280;64513;56.258;43.980;2023-02-28T07:32:51;98720.20;;;12.09;35.65
75867;BME280;64513;56.258;43.980;2023-02-28T07:35:16;98727.37;;;12.34;35.05
75867;BME280;64513;56.258;43.980;2023-02-28T07:37:42;98724.69;;;12.69;34.60
75867;BME280;64513;56.258;43.980;2023-02-28T07:40:09;98729.84;;;12.65;34.52
75867;BME280;64513;56.258;43.980;2023-02-28T07:42:34;98721.13;;;12.56;34.60
75867;BME280;64513;56.258;43.980;2023-02-28T07:44:58;98703.50;;;12.51;34.58
75867;BME280;64513;56.258;43.980;2023-02-28T07:47:22;98694.89;;;12.63;34.50
75867;BME280;64513;56.258;43.980;2023-02-28T07:49:46;98695.01;;;12.84;34.11
75867;BME280;64513;56.258;43.980;2023-02-28T07:52:11;98686.15;;;12.71;34.10
75867;BME280;64513;56.258;43.980;2023-02-28T07:54:35;98683.61;;;12.83;33.89
75867;BME280;64513;56.258;43.980;2023-02-28T07:56:59;98675.61;;;12.92;33.67
75867;BME280;64513;56.258;43.980;2023-02-28T07:59:24;98678.78;;;12.85;33.72
75867;BME280;64513;56.258;43.980;2023-02-28T08:01:48;98674.14;;;13.12;33.36
75867;BME280;64513;56.258;43.980;2023-02-28T08:04:12;98660.56;;;13.22;33.23
75867;BME280;64513;56.258;43.980;2023-02-28T08:06:36;98656.34;;;13.12;33.34
75867;BME280;64513;56.258;43.980;2023-02-28T08:09:00;98666.44;;;12.89;33.81
75867;BME280;64513;56.258;43.980;2023-02-28T08:11:25;98651.83;;;12.66;33.85
75867;BME280;64513;56.258;43.980;2023-02-28T08:13:49;98641.11;;;12.45;33.91
75867;BME280;64513;56.258;43.980;2023-02-28T08:16:14;98656.12;;;12.24;34.20
75867;BME280;64513;56.258;43.980;2023-02-28T08:18:40;98649.12;;;12.02;34.60
75867;BME280;64513;56.258;43.980;2023-02-28T08:21:24;98643.66;;;11.81;34.45
75867;BME280;64513;56.258;43.980;2023-02-28T08:23:49;98637.56;;;11.64;34.77
75867;BME280;64513;56.258;43.980;2023-02-28T08:26:14;98648.16;;;11.64;41.12
75867;BME280;64513;56.258;43.980;2023-02-28T08:28:38;98656.40;;;11.62;39.91
75867;BME280;64513;56.258;43.980;2023-02-28T08:33:48;98656.33;;;11.36;38.65
75867;BME280;64513;56.258;43.980;2023-02-28T08:36:14;98639.95;;;11.17;38.28
75867;BME280;64513;56.258;43.980;2023-02-28T08:38:38;98642.06;;;10.98;38.09
75867;BME280;64513;56.258;43.980;2023-02-28T08:41:06;98636.22;;;10.78;38.02
75867;BME280;64513;56.258;43.980;2023-02-28T08:43:30;98627.91;;;10.63;37.94
75867;BME280;64513;56.258;43.980;2023-02-28T08:45:55;98634.47;;;10.43;37.92
75867;BME280;64513;56.258;43.980;2023-02-28T08:48:20;98638.38;;;10.23;37.98
75867;BME280;64513;56.258;43.980;2023-02-28T08:50:54;98623.79;;;10.03;37.95
75867;BME280;64513;56.258;43.980;2023-02-28T08:53:10;98625.52;;;9.85;38.05
75867;BME280;64513;56.258;43.980;2023-02-28T08:55:34;98616.08;;;9.71;38.07
75867;BME280;64513;56.258;43.980;2023-02-28T08:57:58;98621.20;;;9.54;38.10
75867;BME280;64513;56.258;43.980;2023-02-28T09:00:23;98618.30;;;9.41;38.21
75867;BME280;64513;56.258;43.980;2023-02-28T09:02:47;98618.12;;;9.24;38.48
75867;BME280;64513;56.258;43.980;2023-02-28T09:05:11;98613.16;;;9.09;38.61
75867;BME280;64513;56.258;43.980;2023-02-28T09:07:35;98600.77;;;8.96;38.71
75867;BME280;64513;56.258;43.980;2023-02-28T09:09:59;98599.20;;;8.81;38.92
75867;BME280;64513;56.258;43.980;2023-02-28T09:12:25;98596.24;;;8.69;39.02
75867;BME280;64513;56.258;43.980;2023-02-28T09:14:50;98608.33;;;8.56;39.03
75867;BME280;64513;56.258;43.980;2023-02-28T09:17:14;98599.34;;;8.43;39.10
75867;BME280;64513;56.258;43.980;2023-02-28T09:19:38;98597.72;;;8.29;39.18
75867;BME280;64513;56.258;43.980;2023-02-28T09:22:02;98597.87;;;8.19;39.44
75867;BME280;64513;56.258;43.980;2023-02-28T09:24:26;98601.74;;;8.07;39.54
75867;BME280;64513;56.258;43.980;2023-02-28T09:26:52;98596.15;;;7.95;39.69
75867;BME280;64513;56.258;43.980;2023-02-28T09:29:16;98604.78;;;7.82;40.06
75867;BME280;64513;56.258;43.980;2023-02-28T09:31:40;98598.11;;;7.71;40.05
75867;BME280;64513;56.258;43.980;2023-02-28T09:34:05;98592.19;;;7.60;40.12
75867;BME280;64513;56.258;43.980;2023-02-28T09:36:29;98547.13;;;7.48;40.19
75867;BME280;64513;56.258;43.980;2023-02-28T09:38:55;98603.77;;;7.40;40.27
75867;BME280;64513;56.258;43.980;2023-02-28T09:47:31;98567.34;;;7.10;40.60
75867;BME280;64513;56.258;43.980;2023-02-28T09:49:23;98580.12;;;6.98;40.82
75867;BME280;64513;56.258;43.980;2023-02-28T09:52:39;98582.87;;;6.88;40.99
75867;BME280;64513;56.258;43.980;2023-02-28T09:54:34;98574.81;;;6.79;41.16
75867;BME280;64513;56.258;43.980;2023-02-28T10:11:46;98580.40;;;6.20;42.47
75867;BME280;64513;56.258;43.980;2023-02-28T10:14:32;98587.31;;;6.11;42.73
75867;BME280;64513;56.258;43.980;2023-02-28T10:20:02;98572.20;;;5.97;43.21
75867;BME280;64513;56.258;43.980;2023-02-28T10:25:35;98570.94;;;5.85;43.53
75867;BME280;64513;56.258;43.980;2023-02-28T10:28:20;98574.67;;;5.79;43.75
75867;BME280;64513;56.258;43.980;2023-02-28T10:33:50;98562.45;;;5.64;44.30
75867;BME280;64513;56.258;43.980;2023-02-28T10:36:16;98565.37;;;5.57;44.47
75867;BME280;64513;56.258;43.980;2023-02-28T10:38:41;98560.93;;;5.53;44.64
75867;BME280;64513;56.258;43.980;2023-02-28T10:41:08;98536.60;;;5.47;44.82
75867;BME280;64513;56.258;43.980;2023-02-28T10:43:33;98550.52;;;5.43;44.95
75867;BME280;64513;56.258;43.980;2023-02-28T10:46:18;98513.30;;;5.41;45.12
75867;BME280;64513;56.258;43.980;2023-02-28T10:49:24;98523.81;;;5.36;45.30
75867;BME280;64513;56.258;43.980;2023-02-28T10:51:52;98528.05;;;5.32;45.40
75867;BME280;64513;56.258;43.980;2023-02-28T10:54:51;98528.59;;;5.28;45.53
75867;BME280;64513;56.258;43.980;2023-02-28T10:59:33;98521.80;;;5.22;45.88
75867;BME280;64513;56.258;43.980;2023-02-28T11:01:57;98519.74;;;5.19;45.97
75867;BME280;64513;56.258;43.980;2023-02-28T11:04:41;98516.09;;;5.15;46.20
75867;BME280;64513;56.258;43.980;2023-02-28T11:09:54;98503.55;;;5.07;46.44
75867;BME280;64513;56.258;43.980;2023-02-28T11:12:39;98506.99;;;5.03;46.66
75867;BME280;64513;56.258;43.980;2023-02-28T11:15:18;98486.84;;;4.98;46.90
75867;BME280;64513;56.258;43.980;2023-02-28T11:17:32;98482.41;;;4.93;47.04
75867;BME280;64513;56.258;43.980;2023-02-28T11:20:00;98488.95;;;4.91;47.17
75867;BME280;64513;56.258;43.980;2023-02-28T11:22:31;98480.09;;;4.87;47.33
75867;BME280;64513;56.258;43.980;2023-02-28T11:28:04;98488.75;;;4.82;47.77
75867;BME280;64513;56.258;43.980;2023-02-28T11:30:32;98479.59;;;4.80;47.99
75867;BME280;64513;56.258;43.980;2023-02-28T11:32:56;98485.36;;;4.77;48.17
75867;BME280;64513;56.258;43.980;2023-02-28T11:35:41;98476.98;;;4.75;48.32
75867;BME280;64513;56.258;43.980;2023-02-28T11:55:19;98486.27;;;4.52;49.72
75867;BME280;64513;56.258;43.980;2023-02-28T12:09:46;98464.59;;;4.36;50.47
75867;BME280;64513;56.258;43.980;2023-02-28T12:27:13;98432.72;;;4.19;51.69
75867;BME280;64513;56.258;43.980;2023-02-28T12:29:59;98443.72;;;4.16;51.79
75867;BME280;64513;56.258;43.980;2023-02-28T12:32:47;98435.08;;;4.15;51.90
75867;BME280;64513;56.258;43.980;2023-02-28T12:41:24;98424.63;;;4.10;52.35
75867;BME280;64513;56.258;43.980;2023-02-28T12:44:09;98419.95;;;4.07;52.48
75867;BME280;64513;56.258;43.980;2023-02-28T12:58:52;98388.05;;;4.00;52.83
75867;BME280;64513;56.258;43.980;2023-02-28T13:04:43;98373.66;;;3.98;52.99
75867;BME280;64513;56.258;43.980;2023-02-28T13:10:11;98380.47;;;3.94;53.15
75867;BME280;64513;56.258;43.980;2023-02-28T13:12:46;98392.01;;;3.93;53.24
75867;BME280;64513;56.258;43.980;2023-02-28T13:15:40;98371.35;;;3.91;53.27
75867;BME280;64513;56.258;43.980;2023-02-28T13:17:34;98367.17;;;3.90;53.41
75867;BME280;64513;56.258;43.980;2023-02-28T13:19:59;98378.41;;;3.91;53.46
75867;BME280;64513;56.258;43.980;2023-02-28T13:31:20;98390.97;;;3.88;54.20
75867;BME280;64513;56.258;43.980;2023-02-28T13:34:05;98370.05;;;3.88;54.17
75867;BME280;64513;56.258;43.980;2023-02-28T13:36:32;98378.94;;;3.87;54.25
75867;BME280;64513;56.258;43.980;2023-02-28T13:40:26;98369.52;;;3.86;54.29
75867;BME280;64513;56.258;43.980;2023-02-28T13:50:58;98372.66;;;3.88;55.45
75867;BME280;64513;56.258;43.980;2023-02-28T13:54:18;98372.92;;;3.87;55.33
75867;BME280;64513;56.258;43.980;2023-02-28T13:59:01;98359.59;;;3.83;55.38
75867;BME280;64513;56.258;43.980;2023-02-28T14:04:49;98366.91;;;3.81;55.32
75867;BME280;64513;56.258;43.980;2023-02-28T14:07:37;98359.07;;;3.81;55.30
75867;BME280;64513;56.258;43.980;2023-02-28T14:18:36;98354.92;;;3.75;55.27
75867;BME280;64513;56.258;43.980;2023-02-28T14:27:14;98342.90;;;3.74;55.45
75867;BME280;64513;56.258;43.980;2023-02-28T14:38:52;98328.27;;;3.68;55.46
75867;BME280;64513;56.258;43.980;2023-02-28T14:41:21;98325.13;;;3.66;55.50
75867;BME280;64513;56.258;43.980;2023-02-28T14:47:11;98316.23;;;3.67;57.30
75867;BME280;64513;56.258;43.980;2023-02-28T14:49:55;98324.86;;;3.73;57.79
75867;BME280;64513;56.258;43.980;2023-02-28T14:52:39;98322.77;;;3.75;57.56
75867;BME280;64513;56.258;43.980;2023-02-28T14:56:01;98320.67;;;3.77;57.24
75867;BME280;64513;56.258;43.980;2023-02-28T14:57:57;98305.77;;;3.77;56.96
75867;BME280;64513;56.258;43.980;2023-02-28T15:03:49;98314.10;;;3.79;56.60
75867;BME280;64513;56.258;43.980;2023-02-28T15:06:17;98321.95;;;3.79;56.42
75867;BME280;64513;56.258;43.980;2023-02-28T15:08:42;98314.37;;;3.78;56.35
75867;BME280;64513;56.258;43.980;2023-02-28T15:11:27;98324.56;;;3.79;56.27
75867;BME280;64513;56.258;43.980;2023-02-28T15:17:34;98309.92;;;3.78;56.11
75867;BME280;64513;56.258;43.980;2023-02-28T15:22:15;98298.97;;;3.76;56.04
75867;BME280;64513;56.258;43.980;2023-02-28T15:24:59;98308.65;;;3.76;55.96
75867;BME280;64513;56.258;43.980;2023-02-28T15:27:48;98292.17;;;3.75;55.97
75867;BME280;64513;56.258;43.980;2023-02-28T15:30:33;98300.28;;;3.74;55.98
75867;BME280;64513;56.258;43.980;2023-02-28T15:33:19;98302.90;;;3.74;55.94
75867;BME280;64513;56.258;43.980;2023-02-28T15:35:44;98304.73;;;3.73;55.93
75867;BME280;64513;56.258;43.980;2023-02-28T15:40:57;98297.94;;;3.72;55.99
75867;BME280;64513;56.258;43.980;2023-02-28T15:43:42;98285.13;;;3.71;55.99
75867;BME280;64513;56.258;43.980;2023-02-28T15:46:09;98285.91;;;3.71;56.04
75867;BME280;64513;56.258;43.980;2023-02-28T15:48:55;98285.13;;;3.71;56.08
75867;BME280;64513;56.258;43.980;2023-02-28T15:51:40;98278.33;;;3.70;56.05
75867;BME280;64513;56.258;43.980;2023-02-28T15:54:27;98265.52;;;3.68;56.14
75867;BME280;64513;56.258;43.980;2023-02-28T15:57:13;98268.14;;;3.68;56.09
75867;BME280;64513;56.258;43.980;2023-02-28T15:59:37;98273.63;;;3.67;56.07
75867;BME280;64513;56.258;43.980;2023-02-28T16:02:22;98278.08;;;3.66;56.06
75867;BME280;64513;56.258;43.980;2023-02-28T16:07:34;98277.30;;;3.66;56.14
75867;BME280;64513;56.258;43.980;2023-02-28T16:09:59;98266.05;;;3.65;56.11
75867;BME280;64513;56.258;43.980;2023-02-28T16:12:28;98254.55;;;3.66;56.13
75867;BME280;64513;56.258;43.980;2023-02-28T16:14:54;98255.59;;;3.65;56.21
75867;BME280;64513;56.258;43.980;2023-02-28T16:17:24;98260.83;;;3.65;56.16
75867;BME280;64513;56.258;43.980;2023-02-28T16:19:49;98244.09;;;3.66;56.20
75867;BME280;64513;56.258;43.980;2023-02-28T16:22:15;98249.59;;;3.65;56.29
75867;BME280;64513;56.258;43.980;2023-02-28T16:24:40;98250.38;;;3.65;56.28
75867;BME280;64513;56.258;43.980;2023-02-28T16:27:05;98254.03;;;3.64;56.31
75867;BME280;64513;56.258;43.980;2023-02-28T16:29:32;98255.59;;;3.65;56.27
75867;BME280;64513;56.258;43.980;2023-02-28T16:31:57;98248.02;;;3.64;56.36
75867;BME280;64513;56.258;43.980;2023-02-28T16:34:23;98244.62;;;3.63;56.38
75867;BME280;64513;56.258;43.980;2023-02-28T16:36:50;98238.34;;;3.64;56.34
75867;BME280;64513;56.258;43.980;2023-02-28T16:39:15;98243.58;;;3.64;56.33
75867;BME280;64513;56.258;43.980;2023-02-28T16:42:01;98239.39;;;3.63;56.37
75867;BME280;64513;56.258;43.980;2023-02-28T16:44:46;98243.58;;;3.64;56.38
75867;BME280;64513;56.258;43.980;2023-02-28T16:47:12;98225.55;;;3.63;56.32
75867;BME280;64513;56.258;43.980;2023-02-28T16:49:37;98241.23;;;3.63;56.31
75867;BME280;64513;56.258;43.980;2023-02-28T16:52:03;98229.98;;;3.62;56.36
75867;BME280;64513;56.258;43.980;2023-02-28T16:54:28;98238.91;;;3.61;56.37
75867;BME280;64513;56.258;43.980;2023-02-28T16:56:53;98228.45;;;3.61;56.37
75867;BME280;64513;56.258;43.980;2023-02-28T17:02:37;98228.45;;;3.61;56.35
75867;BME280;64513;56.258;43.980;2023-02-28T17:04:33;98223.23;;;3.61;56.34
75867;BME280;64513;56.258;43.980;2023-02-28T17:06:58;98226.89;;;3.60;56.31
75867;BME280;64513;56.258;43.980;2023-02-28T17:09:23;98230.55;;;3.59;56.40
75867;BME280;64513;56.258;43.980;2023-02-28T17:11:48;98234.73;;;3.60;56.34
75867;BME280;64513;56.258;43.980;2023-02-28T17:14:14;98232.11;;;3.60;56.39
75867;BME280;64513;56.258;43.980;2023-02-28T17:16:40;98228.98;;;3.58;56.37
75867;BME280;64513;56.258;43.980;2023-02-28T17:19:06;98235.52;;;3.61;56.37
75867;BME280;64513;56.258;43.980;2023-02-28T17:21:33;98215.38;;;3.61;56.39
75867;BME280;64513;56.258;43.980;2023-02-28T17:23:59;98229.23;;;3.62;56.38
75867;BME280;64513;56.258;43.980;2023-02-28T17:26:24;98220.61;;;3.61;56.42
75867;BME280;64513;56.258;43.980;2023-02-28T17:28:50;98219.83;;;3.61;56.41